sensor_id;sensor_type;location;lat;lon;timestamp;P1;durP1;ratioP1;P2;durP2;ratioP2
18455;SDS011;9357;49.900;8.208;2022-09-24T00:00:13;6.50;;;5.70;;
18455;SDS011;9357;49.900;8.208;2022-09-24T00:01:46;6.93;;;5.87;;
18455;SDS011;9357;49.900;8.208;2022-09-24T00:03:18;8.17;;;6.20;;
18455;SDS011;9357;49.900;8.208;2022-09-24T00:04:51;9.33;;;5.67;;
18455;SDS011;9357;49.900;8.208;2022-09-24T00:06:24;7.00;;;6.30;;
18455;SDS011;9357;49.900;8.208;2022-09-24T00:07:58;7.07;;;5.53;;
18455;SDS011;9357;49.900;8.208;2022-09-24T00:09:31;7.17;;;6.10;;
18455;SDS011;9357;49.900;8.208;2022-09-24T00:11:04;7.13;;;6.30;;
18455;SDS011;9357;49.900;8.208;2022-09-24T00:12:37;8.67;;;6.10;;
18455;SDS011;9357;49.900;8.208;2022-09-24T00:14:10;9.50;;;6.57;;
18455;SDS011;9357;49.900;8.208;2022-09-24T00:15:43;7.80;;;6.97;;
18455;SDS011;9357;49.900;8.208;2022-09-24T00:17:17;8.17;;;6.20;;
18455;SDS011;9357;49.900;8.208;2022-09-24T00:18:50;7.03;;;6.33;;
18455;SDS011;9357;49.900;8.208;2022-09-24T00:20:23;7.17;;;6.47;;
18455;SDS011;9357;49.900;8.208;2022-09-24T00:21:56;6.80;;;6.10;;
18455;SDS011;9357;49.900;8.208;2022-09-24T00:23:29;7.47;;;6.77;;
18455;SDS011;9357;49.900;8.208;2022-09-24T00:25:02;9.93;;;6.80;;
18455;SDS011;9357;49.900;8.208;2022-09-24T00:26:52;8.90;;;6.70;;
18455;SDS011;9357;49.900;8.208;2022-09-24T00:28:26;8.23;;;6.97;;
18455;SDS011;9357;49.900;8.208;2022-09-24T00:29:57;7.80;;;7.00;;
18455;SDS011;9357;49.900;8.208;2022-09-24T00:31:30;11.03;;;7.27;;
18455;SDS011;9357;49.900;8.208;2022-09-24T00:33:03;7.50;;;6.37;;
18455;SDS011;9357;49.900;8.208;2022-09-24T00:34:36;7.37;;;6.33;;
18455;SDS011;9357;49.900;8.208;2022-09-24T00:36:09;9.10;;;6.90;;
18455;SDS011;9357;49.900;8.208;2022-09-24T00:37:42;8.87;;;6.20;;
18455;SDS011;9357;49.900;8.208;2022-09-24T00:39:15;7.30;;;5.80;;
18455;SDS011;9357;49.900;8.208;2022-09-24T00:40:49;6.77;;;6.17;;
18455;SDS011;9357;49.900;8.208;2022-09-24T00:42:21;8.57;;;6.00;;
18455;SDS011;9357;49.900;8.208;2022-09-24T00:43:54;6.40;;;5.80;;
18455;SDS011;9357;49.900;8.208;2022-09-24T00:45:26;7.17;;;5.60;;
18455;SDS011;9357;49.900;8.208;2022-09-24T00:47:01;6.70;;;6.00;;
18455;SDS011;9357;49.900;8.208;2022-09-24T00:48:33;6.43;;;5.63;;
18455;SDS011;9357;49.900;8.208;2022-09-24T00:50:08;7.03;;;5.83;;
18455;SDS011;9357;49.900;8.208;2022-09-24T00:51:46;7.13;;;6.00;;
18455;SDS011;9357;49.900;8.208;2022-09-24T00:53:22;7.37;;;6.67;;
18455;SDS011;9357;49.900;8.208;2022-09-24T00:54:59;8.13;;;7.13;;
18455;SDS011;9357;49.900;8.208;2022-09-24T00:56:33;9.00;;;6.97;;
18455;SDS011;9357;49.900;8.208;2022-09-24T00:58:08;6.70;;;6.07;;
18455;SDS011;9357;49.900;8.208;2022-09-24T00:59:42;7.80;;;7.10;;
18455;SDS011;9357;49.900;8.208;2022-09-24T01:01:14;7.00;;;6.40;;
18455;SDS011;9357;49.900;8.208;2022-09-24T01:02:49;7.97;;;6.60;;
18455;SDS011;9357;49.900;8.208;2022-09-24T01:04:26;6.73;;;5.90;;
18455;SDS011;9357;49.900;8.208;2022-09-24T01:05:59;7.67;;;6.43;;
18455;SDS011;9357;49.900;8.208;2022-09-24T01:07:32;6.43;;;5.77;;
18455;SDS011;9357;49.900;8.208;2022-09-24T01:09:05;6.53;;;5.83;;
18455;SDS011;9357;49.900;8.208;2022-09-24T01:10:45;6.17;;;5.57;;
18455;SDS011;9357;49.900;8.208;2022-09-24T01:12:45;6.57;;;5.53;;
18455;SDS011;9357;49.900;8.208;2022-09-24T01:14:33;6.33;;;5.73;;
18455;SDS011;9357;49.900;8.208;2022-09-24T01:16:18;6.40;;;5.80;;
18455;SDS011;9357;49.900;8.208;2022-09-24T01:17:57;8.17;;;6.57;;
18455;SDS011;9357;49.900;8.208;2022-09-24T01:19:57;6.70;;;6.10;;
18455;SDS011;9357;49.900;8.208;2022-09-24T01:21:45;7.37;;;5.83;;
18455;SDS011;9357;49.900;8.208;2022-09-24T01:25:34;6.50;;;5.67;;
18455;SDS011;9357;49.900;8.208;2022-09-24T01:27:15;6.47;;;5.87;;
18455;SDS011;9357;49.900;8.208;2022-09-24T01:28:56;7.27;;;6.50;;
18455;SDS011;9357;49.900;8.208;2022-09-24T01:30:37;6.63;;;6.03;;
18455;SDS011;9357;49.900;8.208;2022-09-24T01:32:14;6.23;;;5.63;;
18455;SDS011;9357;49.900;8.208;2022-09-24T01:33:51;7.33;;;6.63;;
18455;SDS011;9357;49.900;8.208;2022-09-24T01:35:25;7.10;;;6.40;;
18455;SDS011;9357;49.900;8.208;2022-09-24T01:37:02;6.03;;;5.47;;
18455;SDS011;9357;49.900;8.208;2022-09-24T01:38:36;6.20;;;5.60;;
18455;SDS011;9357;49.900;8.208;2022-09-24T01:40:12;6.47;;;5.33;;
18455;SDS011;9357;49.900;8.208;2022-09-24T01:41:46;5.87;;;5.37;;
18455;SDS011;9357;49.900;8.208;2022-09-24T01:43:20;5.87;;;5.33;;
18455;SDS011;9357;49.900;8.208;2022-09-24T01:44:55;5.80;;;5.07;;
18455;SDS011;9357;49.900;8.208;2022-09-24T01:46:30;6.53;;;5.07;;
18455;SDS011;9357;49.900;8.208;2022-09-24T01:48:03;6.20;;;5.60;;
18455;SDS011;9357;49.900;8.208;2022-09-24T01:49:36;6.23;;;5.63;;
18455;SDS011;9357;49.900;8.208;2022-09-24T01:51:09;6.30;;;5.60;;
18455;SDS011;9357;49.900;8.208;2022-09-24T01:52:49;5.97;;;5.40;;
18455;SDS011;9357;49.900;8.208;2022-09-24T01:54:27;5.73;;;5.00;;
18455;SDS011;9357;49.900;8.208;2022-09-24T01:56:06;6.63;;;5.83;;
18455;SDS011;9357;49.900;8.208;2022-09-24T01:57:44;5.90;;;4.97;;
18455;SDS011;9357;49.900;8.208;2022-09-24T01:59:21;5.40;;;4.90;;
18455;SDS011;9357;49.900;8.208;2022-09-24T02:01:01;6.10;;;5.20;;
18455;SDS011;9357;49.900;8.208;2022-09-24T02:02:40;5.60;;;4.70;;
18455;SDS011;9357;49.900;8.208;2022-09-24T02:04:17;7.90;;;4.60;;
18455;SDS011;9357;49.900;8.208;2022-09-24T02:05:53;7.10;;;4.90;;
18455;SDS011;9357;49.900;8.208;2022-09-24T02:07:31;6.67;;;4.57;;
18455;SDS011;9357;49.900;8.208;2022-09-24T02:11:01;4.50;;;4.10;;
18455;SDS011;9357;49.900;8.208;2022-09-24T02:12:37;7.00;;;4.50;;
18455;SDS011;9357;49.900;8.208;2022-09-24T02:14:13;5.07;;;4.57;;
18455;SDS011;9357;49.900;8.208;2022-09-24T02:15:47;4.40;;;4.00;;
18455;SDS011;9357;49.900;8.208;2022-09-24T02:17:23;4.83;;;3.90;;
18455;SDS011;9357;49.900;8.208;2022-09-24T02:19:02;4.07;;;3.67;;
18455;SDS011;9357;49.900;8.208;2022-09-24T02:20:38;4.33;;;3.93;;
18455;SDS011;9357;49.900;8.208;2022-09-24T02:22:14;5.63;;;4.00;;
18455;SDS011;9357;49.900;8.208;2022-09-24T02:23:50;4.37;;;3.97;;
18455;SDS011;9357;49.900;8.208;2022-09-24T02:25:28;5.30;;;4.13;;
18455;SDS011;9357;49.900;8.208;2022-09-24T02:27:10;4.27;;;3.97;;
18455;SDS011;9357;49.900;8.208;2022-09-24T02:28:43;4.43;;;3.90;;
18455;SDS011;9357;49.900;8.208;2022-09-24T02:30:16;5.93;;;4.00;;
18455;SDS011;9357;49.900;8.208;2022-09-24T02:31:49;4.30;;;3.90;;
18455;SDS011;9357;49.900;8.208;2022-09-24T02:33:25;4.33;;;3.93;;
18455;SDS011;9357;49.900;8.208;2022-09-24T02:35:20;5.30;;;4.50;;
18455;SDS011;9357;49.900;8.208;2022-09-24T02:36:53;4.93;;;4.53;;
18455;SDS011;9357;49.900;8.208;2022-09-24T02:38:29;6.10;;;5.43;;
18455;SDS011;9357;49.900;8.208;2022-09-24T02:40:02;6.70;;;5.43;;
18455;SDS011;9357;49.900;8.208;2022-09-24T02:41:36;5.70;;;5.20;;
18455;SDS011;9357;49.900;8.208;2022-09-24T02:43:10;5.70;;;5.20;;
18455;SDS011;9357;49.900;8.208;2022-09-24T02:44:42;6.60;;;5.90;;
18455;SDS011;9357;49.900;8.208;2022-09-24T02:46:14;7.97;;;6.37;;
18455;SDS011;9357;49.900;8.208;2022-09-24T02:47:47;6.67;;;6.07;;
18455;SDS011;9357;49.900;8.208;2022-09-24T02:49:19;6.93;;;5.60;;
18455;SDS011;9357;49.900;8.208;2022-09-24T02:50:53;6.63;;;5.30;;
18455;SDS011;9357;49.900;8.208;2022-09-24T02:52:26;6.13;;;5.63;;
18455;SDS011;9357;49.900;8.208;2022-09-24T02:53:59;6.70;;;6.10;;
18455;SDS011;9357;49.900;8.208;2022-09-24T02:55:31;5.40;;;4.90;;
18455;SDS011;9357;49.900;8.208;2022-09-24T02:57:04;7.70;;;5.70;;
18455;SDS011;9357;49.900;8.208;2022-09-24T02:58:36;7.73;;;6.03;;
18455;SDS011;9357;49.900;8.208;2022-09-24T03:00:09;9.23;;;6.33;;
18455;SDS011;9357;49.900;8.208;2022-09-24T03:01:43;6.73;;;6.13;;
18455;SDS011;9357;49.900;8.208;2022-09-24T03:03:15;6.90;;;6.20;;
18455;SDS011;9357;49.900;8.208;2022-09-24T03:04:48;6.83;;;6.23;;
18455;SDS011;9357;49.900;8.208;2022-09-24T03:06:23;7.00;;;6.00;;
18455;SDS011;9357;49.900;8.208;2022-09-24T03:07:55;7.07;;;5.53;;
18455;SDS011;9357;49.900;8.208;2022-09-24T03:09:29;6.37;;;5.77;;
18455;SDS011;9357;49.900;8.208;2022-09-24T03:11:01;6.87;;;6.10;;
18455;SDS011;9357;49.900;8.208;2022-09-24T03:12:34;6.90;;;6.20;;
18455;SDS011;9357;49.900;8.208;2022-09-24T03:14:07;6.50;;;5.90;;
18455;SDS011;9357;49.900;8.208;2022-09-24T03:15:40;6.20;;;5.60;;
18455;SDS011;9357;49.900;8.208;2022-09-24T03:17:13;6.53;;;5.93;;
18455;SDS011;9357;49.900;8.208;2022-09-24T03:18:46;6.53;;;5.40;;
18455;SDS011;9357;49.900;8.208;2022-09-24T03:20:19;6.37;;;5.27;;
18455;SDS011;9357;49.900;8.208;2022-09-24T03:21:53;5.57;;;5.07;;
18455;SDS011;9357;49.900;8.208;2022-09-24T03:23:26;6.23;;;5.30;;
18455;SDS011;9357;49.900;8.208;2022-09-24T03:24:58;5.97;;;5.00;;
18455;SDS011;9357;49.900;8.208;2022-09-24T03:26:31;4.83;;;4.40;;
18455;SDS011;9357;49.900;8.208;2022-09-24T03:28:03;5.10;;;4.60;;
18455;SDS011;9357;49.900;8.208;2022-09-24T03:29:36;5.87;;;4.47;;
18455;SDS011;9357;49.900;8.208;2022-09-24T03:31:26;7.77;;;4.97;;
18455;SDS011;9357;49.900;8.208;2022-09-24T03:32:59;6.27;;;4.33;;
18455;SDS011;9357;49.900;8.208;2022-09-24T03:34:31;5.70;;;4.83;;
18455;SDS011;9357;49.900;8.208;2022-09-24T03:36:04;5.20;;;4.70;;
18455;SDS011;9357;49.900;8.208;2022-09-24T03:37:40;5.40;;;4.90;;
18455;SDS011;9357;49.900;8.208;2022-09-24T03:39:19;5.83;;;5.20;;
18455;SDS011;9357;49.900;8.208;2022-09-24T03:40:52;5.63;;;4.67;;
18455;SDS011;9357;49.900;8.208;2022-09-24T03:42:24;5.73;;;5.23;;
18455;SDS011;9357;49.900;8.208;2022-09-24T03:43:57;6.73;;;5.80;;
18455;SDS011;9357;49.900;8.208;2022-09-24T03:45:30;6.18;;;5.18;;
18455;SDS011;9357;49.900;8.208;2022-09-24T03:47:02;5.20;;;4.70;;
18455;SDS011;9357;49.900;8.208;2022-09-24T03:48:35;4.73;;;4.33;;
18455;SDS011;9357;49.900;8.208;2022-09-24T03:50:09;6.53;;;4.17;;
18455;SDS011;9357;49.900;8.208;2022-09-24T03:51:41;4.93;;;4.47;;
18455;SDS011;9357;49.900;8.208;2022-09-24T03:53:16;5.00;;;4.00;;
18455;SDS011;9357;49.900;8.208;2022-09-24T03:54:49;4.90;;;4.47;;
18455;SDS011;9357;49.900;8.208;2022-09-24T03:56:22;4.50;;;4.10;;
18455;SDS011;9357;49.900;8.208;2022-09-24T03:57:54;5.13;;;4.30;;
18455;SDS011;9357;49.900;8.208;2022-09-24T03:59:26;5.13;;;4.70;;
18455;SDS011;9357;49.900;8.208;2022-09-24T04:00:59;5.47;;;4.97;;
18455;SDS011;9357;49.900;8.208;2022-09-24T04:02:31;8.27;;;5.97;;
18455;SDS011;9357;49.900;8.208;2022-09-24T04:04:04;6.40;;;5.80;;
18455;SDS011;9357;49.900;8.208;2022-09-24T04:05:37;6.40;;;5.80;;
18455;SDS011;9357;49.900;8.208;2022-09-24T04:07:10;8.97;;;5.40;;
18455;SDS011;9357;49.900;8.208;2022-09-24T04:08:44;6.27;;;5.13;;
18455;SDS011;9357;49.900;8.208;2022-09-24T04:10:17;5.70;;;5.07;;
18455;SDS011;9357;49.900;8.208;2022-09-24T04:11:49;6.17;;;5.57;;
18455;SDS011;9357;49.900;8.208;2022-09-24T04:13:22;7.53;;;5.90;;
18455;SDS011;9357;49.900;8.208;2022-09-24T04:14:55;7.17;;;6.13;;
18455;SDS011;9357;49.900;8.208;2022-09-24T04:16:28;5.80;;;5.20;;
18455;SDS011;9357;49.900;8.208;2022-09-24T04:18:01;6.47;;;5.00;;
18455;SDS011;9357;49.900;8.208;2022-09-24T04:19:33;5.77;;;5.00;;
18455;SDS011;9357;49.900;8.208;2022-09-24T04:21:06;5.63;;;5.00;;
18455;SDS011;9357;49.900;8.208;2022-09-24T04:22:39;5.93;;;5.07;;
18455;SDS011;9357;49.900;8.208;2022-09-24T04:24:12;7.63;;;5.17;;
18455;SDS011;9357;49.900;8.208;2022-09-24T04:25:45;6.20;;;5.33;;
18455;SDS011;9357;49.900;8.208;2022-09-24T04:27:18;5.32;;;4.82;;
18455;SDS011;9357;49.900;8.208;2022-09-24T04:28:50;6.28;;;4.60;;
18455;SDS011;9357;49.900;8.208;2022-09-24T04:30:23;5.18;;;4.68;;
18455;SDS011;9357;49.900;8.208;2022-09-24T04:31:57;5.53;;;5.03;;
18455;SDS011;9357;49.900;8.208;2022-09-24T04:33:30;5.00;;;4.50;;
18455;SDS011;9357;49.900;8.208;2022-09-24T04:35:03;5.07;;;4.57;;
18455;SDS011;9357;49.900;8.208;2022-09-24T04:36:38;5.95;;;4.40;;
18455;SDS011;9357;49.900;8.208;2022-09-24T04:38:10;5.27;;;4.77;;
18455;SDS011;9357;49.900;8.208;2022-09-24T04:39:45;5.57;;;5.07;;
18455;SDS011;9357;49.900;8.208;2022-09-24T04:41:17;5.80;;;5.20;;
18455;SDS011;9357;49.900;8.208;2022-09-24T04:42:50;6.35;;;5.05;;
18455;SDS011;9357;49.900;8.208;2022-09-24T04:44:23;5.93;;;5.33;;
18455;SDS011;9357;49.900;8.208;2022-09-24T04:45:56;5.90;;;5.28;;
18455;SDS011;9357;49.900;8.208;2022-09-24T04:47:30;5.50;;;5.00;;
18455;SDS011;9357;49.900;8.208;2022-09-24T04:49:02;7.03;;;5.60;;
18455;SDS011;9357;49.900;8.208;2022-09-24T04:50:35;6.17;;;5.50;;
18455;SDS011;9357;49.900;8.208;2022-09-24T04:52:16;8.02;;;5.38;;
18455;SDS011;9357;49.900;8.208;2022-09-24T04:53:49;8.52;;;6.47;;
18455;SDS011;9357;49.900;8.208;2022-09-24T04:55:23;7.72;;;6.45;;
18455;SDS011;9357;49.900;8.208;2022-09-24T04:56:57;8.27;;;6.18;;
18455;SDS011;9357;49.900;8.208;2022-09-24T04:58:30;7.28;;;6.00;;
18455;SDS011;9357;49.900;8.208;2022-09-24T05:00:04;7.30;;;6.20;;
18455;SDS011;9357;49.900;8.208;2022-09-24T05:01:38;8.63;;;5.72;;
18455;SDS011;9357;49.900;8.208;2022-09-24T05:03:11;8.02;;;5.47;;
18455;SDS011;9357;49.900;8.208;2022-09-24T05:04:44;7.97;;;6.18;;
18455;SDS011;9357;49.900;8.208;2022-09-24T05:06:16;7.30;;;6.35;;
18455;SDS011;9357;49.900;8.208;2022-09-24T05:07:49;6.72;;;6.03;;
18455;SDS011;9357;49.900;8.208;2022-09-24T05:09:22;6.93;;;6.22;;
18455;SDS011;9357;49.900;8.208;2022-09-24T05:10:56;6.32;;;5.63;;
18455;SDS011;9357;49.900;8.208;2022-09-24T05:12:32;6.90;;;5.80;;
18455;SDS011;9357;49.900;8.208;2022-09-24T05:14:05;7.30;;;5.45;;
18455;SDS011;9357;49.900;8.208;2022-09-24T05:15:38;5.97;;;5.32;;
18455;SDS011;9357;49.900;8.208;2022-09-24T05:17:13;6.32;;;5.03;;
18455;SDS011;9357;49.900;8.208;2022-09-24T05:18:46;5.97;;;5.43;;
18455;SDS011;9357;49.900;8.208;2022-09-24T05:20:19;7.95;;;5.45;;
18455;SDS011;9357;49.900;8.208;2022-09-24T05:21:52;9.55;;;7.50;;
18455;SDS011;9357;49.900;8.208;2022-09-24T05:23:24;9.93;;;7.15;;
18455;SDS011;9357;49.900;8.208;2022-09-24T05:24:57;7.45;;;5.75;;
18455;SDS011;9357;49.900;8.208;2022-09-24T05:26:31;5.72;;;5.05;;
18455;SDS011;9357;49.900;8.208;2022-09-24T05:28:22;10.07;;;4.85;;
18455;SDS011;9357;49.900;8.208;2022-09-24T05:29:55;5.82;;;5.22;;
18455;SDS011;9357;49.900;8.208;2022-09-24T05:31:27;5.85;;;5.20;;
18455;SDS011;9357;49.900;8.208;2022-09-24T05:32:59;5.85;;;5.25;;
18455;SDS011;9357;49.900;8.208;2022-09-24T05:34:32;7.43;;;5.45;;
18455;SDS011;9357;49.900;8.208;2022-09-24T05:36:05;5.75;;;5.10;;
18455;SDS011;9357;49.900;8.208;2022-09-24T05:37:38;5.53;;;4.80;;
18455;SDS011;9357;49.900;8.208;2022-09-24T05:39:11;5.18;;;4.45;;
18455;SDS011;9357;49.900;8.208;2022-09-24T05:40:44;5.55;;;4.90;;
18455;SDS011;9357;49.900;8.208;2022-09-24T05:42:20;10.50;;;7.23;;
18455;SDS011;9357;49.900;8.208;2022-09-24T05:43:53;6.43;;;5.53;;
18455;SDS011;9357;49.900;8.208;2022-09-24T05:45:29;6.65;;;5.03;;
18455;SDS011;9357;49.900;8.208;2022-09-24T05:47:02;5.43;;;4.85;;
18455;SDS011;9357;49.900;8.208;2022-09-24T05:48:35;9.43;;;4.95;;
18455;SDS011;9357;49.900;8.208;2022-09-24T05:50:08;5.93;;;4.65;;
18455;SDS011;9357;49.900;8.208;2022-09-24T05:51:40;5.75;;;5.05;;
18455;SDS011;9357;49.900;8.208;2022-09-24T05:53:12;5.78;;;4.70;;
18455;SDS011;9357;49.900;8.208;2022-09-24T05:54:45;5.72;;;4.80;;
18455;SDS011;9357;49.900;8.208;2022-09-24T05:56:18;7.50;;;5.13;;
18455;SDS011;9357;49.900;8.208;2022-09-24T05:57:52;7.53;;;5.28;;
18455;SDS011;9357;49.900;8.208;2022-09-24T05:59:24;9.32;;;6.40;;
18455;SDS011;9357;49.900;8.208;2022-09-24T06:00:57;7.32;;;6.22;;
18455;SDS011;9357;49.900;8.208;2022-09-24T06:02:31;7.38;;;5.93;;
18455;SDS011;9357;49.900;8.208;2022-09-24T06:04:04;6.13;;;5.30;;
18455;SDS011;9357;49.900;8.208;2022-09-24T06:05:42;9.15;;;6.15;;
18455;SDS011;9357;49.900;8.208;2022-09-24T06:07:16;7.75;;;6.03;;
18455;SDS011;9357;49.900;8.208;2022-09-24T06:08:48;6.68;;;6.05;;
18455;SDS011;9357;49.900;8.208;2022-09-24T06:10:21;5.43;;;4.90;;
18455;SDS011;9357;49.900;8.208;2022-09-24T06:11:56;5.72;;;5.20;;
18455;SDS011;9357;49.900;8.208;2022-09-24T06:13:30;12.98;;;6.47;;
18455;SDS011;9357;49.900;8.208;2022-09-24T06:15:05;7.47;;;5.90;;
18455;SDS011;9357;49.900;8.208;2022-09-24T06:16:38;7.28;;;6.00;;
18455;SDS011;9357;49.900;8.208;2022-09-24T06:18:11;6.13;;;5.50;;
18455;SDS011;9357;49.900;8.208;2022-09-24T06:19:44;6.63;;;5.93;;
18455;SDS011;9357;49.900;8.208;2022-09-24T06:21:17;5.35;;;4.85;;
18455;SDS011;9357;49.900;8.208;2022-09-24T06:22:53;5.50;;;4.90;;
18455;SDS011;9357;49.900;8.208;2022-09-24T06:24:25;8.13;;;5.07;;
18455;SDS011;9357;49.900;8.208;2022-09-24T06:25:57;8.68;;;5.57;;
18455;SDS011;9357;49.900;8.208;2022-09-24T06:27:30;6.28;;;5.68;;
18455;SDS011;9357;49.900;8.208;2022-09-24T06:29:04;5.15;;;4.75;;
18455;SDS011;9357;49.900;8.208;2022-09-24T06:30:37;6.20;;;4.82;;
18455;SDS011;9357;49.900;8.208;2022-09-24T06:32:11;9.02;;;5.97;;
18455;SDS011;9357;49.900;8.208;2022-09-24T06:33:43;7.55;;;5.80;;
18455;SDS011;9357;49.900;8.208;2022-09-24T06:35:16;6.35;;;5.75;;
18455;SDS011;9357;49.900;8.208;2022-09-24T06:36:52;7.60;;;6.07;;
18455;SDS011;9357;49.900;8.208;2022-09-24T06:38:25;6.13;;;4.93;;
18455;SDS011;9357;49.900;8.208;2022-09-24T06:39:58;11.45;;;5.95;;
18455;SDS011;9357;49.900;8.208;2022-09-24T06:41:31;7.85;;;6.15;;
18455;SDS011;9357;49.900;8.208;2022-09-24T06:43:04;10.27;;;7.20;;
18455;SDS011;9357;49.900;8.208;2022-09-24T06:44:38;12.48;;;8.95;;
18455;SDS011;9357;49.900;8.208;2022-09-24T06:46:12;9.05;;;7.80;;
18455;SDS011;9357;49.900;8.208;2022-09-24T06:47:50;8.65;;;7.43;;
18455;SDS011;9357;49.900;8.208;2022-09-24T06:49:24;10.57;;;7.78;;
18455;SDS011;9357;49.900;8.208;2022-09-24T06:51:04;9.13;;;7.90;;
18455;SDS011;9357;49.900;8.208;2022-09-24T06:52:37;9.63;;;7.93;;
18455;SDS011;9357;49.900;8.208;2022-09-24T06:54:10;8.05;;;7.20;;
18455;SDS011;9357;49.900;8.208;2022-09-24T06:55:43;12.45;;;8.55;;
18455;SDS011;9357;49.900;8.208;2022-09-24T06:57:17;22.90;;;14.82;;
18455;SDS011;9357;49.900;8.208;2022-09-24T06:58:50;35.08;;;14.63;;
18455;SDS011;9357;49.900;8.208;2022-09-24T07:00:24;28.13;;;13.38;;
18455;SDS011;9357;49.900;8.208;2022-09-24T07:01:56;57.15;;;12.70;;
18455;SDS011;9357;49.900;8.208;2022-09-24T07:03:30;98.93;;;18.67;;
18455;SDS011;9357;49.900;8.208;2022-09-24T07:05:05;58.83;;;13.83;;
18455;SDS011;9357;49.900;8.208;2022-09-24T07:06:39;34.57;;;10.20;;
18455;SDS011;9357;49.900;8.208;2022-09-24T07:08:29;12.38;;;7.32;;
18455;SDS011;9357;49.900;8.208;2022-09-24T07:10:03;23.77;;;9.40;;
18455;SDS011;9357;49.900;8.208;2022-09-24T07:11:37;31.10;;;10.67;;
18455;SDS011;9357;49.900;8.208;2022-09-24T07:13:10;44.03;;;11.07;;
18455;SDS011;9357;49.900;8.208;2022-09-24T07:14:44;51.77;;;12.87;;
18455;SDS011;9357;49.900;8.208;2022-09-24T07:16:18;30.77;;;9.30;;
18455;SDS011;9357;49.900;8.208;2022-09-24T07:17:53;22.40;;;8.30;;
18455;SDS011;9357;49.900;8.208;2022-09-24T07:19:26;27.20;;;9.33;;
18455;SDS011;9357;49.900;8.208;2022-09-24T07:20:59;38.97;;;11.20;;
18455;SDS011;9357;49.900;8.208;2022-09-24T07:22:33;21.87;;;9.17;;
18455;SDS011;9357;49.900;8.208;2022-09-24T07:24:09;8.93;;;6.83;;
18455;SDS011;9357;49.900;8.208;2022-09-24T07:25:42;9.43;;;6.80;;
18455;SDS011;9357;49.900;8.208;2022-09-24T07:27:15;7.50;;;6.67;;
18455;SDS011;9357;49.900;8.208;2022-09-24T07:28:49;7.40;;;6.70;;
18455;SDS011;9357;49.900;8.208;2022-09-24T07:30:22;8.53;;;7.13;;
18455;SDS011;9357;49.900;8.208;2022-09-24T07:31:56;83.37;;;16.57;;
18455;SDS011;9357;49.900;8.208;2022-09-24T07:33:29;15.93;;;8.53;;
18455;SDS011;9357;49.900;8.208;2022-09-24T07:35:03;8.50;;;7.53;;
18455;SDS011;9357;49.900;8.208;2022-09-24T07:36:36;8.40;;;7.50;;
18455;SDS011;9357;49.900;8.208;2022-09-24T07:38:10;9.47;;;7.33;;
18455;SDS011;9357;49.900;8.208;2022-09-24T07:39:43;13.60;;;10.77;;
18455;SDS011;9357;49.900;8.208;2022-09-24T07:41:16;10.87;;;9.33;;
18455;SDS011;9357;49.900;8.208;2022-09-24T07:42:50;7.67;;;6.97;;
18455;SDS011;9357;49.900;8.208;2022-09-24T07:44:22;8.10;;;7.30;;
18455;SDS011;9357;49.900;8.208;2022-09-24T07:45:55;13.87;;;7.73;;
18455;SDS011;9357;49.900;8.208;2022-09-24T07:47:29;21.43;;;9.67;;
18455;SDS011;9357;49.900;8.208;2022-09-24T07:49:02;12.23;;;8.20;;
18455;SDS011;9357;49.900;8.208;2022-09-24T07:50:37;20.33;;;7.90;;
18455;SDS011;9357;49.900;8.208;2022-09-24T07:52:10;36.00;;;14.27;;
18455;SDS011;9357;49.900;8.208;2022-09-24T07:53:43;12.10;;;8.97;;
18455;SDS011;9357;49.900;8.208;2022-09-24T07:55:15;11.73;;;8.30;;
18455;SDS011;9357;49.900;8.208;2022-09-24T07:56:48;9.17;;;7.70;;
18455;SDS011;9357;49.900;8.208;2022-09-24T07:58:21;10.50;;;7.67;;
18455;SDS011;9357;49.900;8.208;2022-09-24T07:59:54;11.50;;;7.37;;
18455;SDS011;9357;49.900;8.208;2022-09-24T08:01:27;11.93;;;7.60;;
18455;SDS011;9357;49.900;8.208;2022-09-24T08:03:02;9.63;;;6.93;;
18455;SDS011;9357;49.900;8.208;2022-09-24T08:04:35;9.57;;;6.57;;
18455;SDS011;9357;49.900;8.208;2022-09-24T08:06:08;7.40;;;6.80;;
18455;SDS011;9357;49.900;8.208;2022-09-24T08:07:41;9.80;;;6.80;;
18455;SDS011;9357;49.900;8.208;2022-09-24T08:09:14;7.57;;;5.70;;
18455;SDS011;9357;49.900;8.208;2022-09-24T08:10:47;11.83;;;6.67;;
18455;SDS011;9357;49.900;8.208;2022-09-24T08:12:20;8.00;;;6.20;;
18455;SDS011;9357;49.900;8.208;2022-09-24T08:13:56;6.50;;;5.77;;
18455;SDS011;9357;49.900;8.208;2022-09-24T08:15:29;6.87;;;6.10;;
18455;SDS011;9357;49.900;8.208;2022-09-24T08:17:02;15.03;;;5.90;;
18455;SDS011;9357;49.900;8.208;2022-09-24T08:18:36;7.10;;;5.50;;
18455;SDS011;9357;49.900;8.208;2022-09-24T08:20:09;6.30;;;5.67;;
18455;SDS011;9357;49.900;8.208;2022-09-24T08:21:42;10.50;;;9.60;;
18455;SDS011;9357;49.900;8.208;2022-09-24T08:23:15;6.33;;;5.73;;
18455;SDS011;9357;49.900;8.208;2022-09-24T08:24:48;7.53;;;6.50;;
18455;SDS011;9357;49.900;8.208;2022-09-24T08:26:21;14.60;;;7.10;;
18455;SDS011;9357;49.900;8.208;2022-09-24T08:27:54;12.03;;;6.90;;
18455;SDS011;9357;49.900;8.208;2022-09-24T08:29:26;9.87;;;6.60;;
18455;SDS011;9357;49.900;8.208;2022-09-24T08:30:59;10.53;;;6.83;;
18455;SDS011;9357;49.900;8.208;2022-09-24T08:32:34;7.47;;;6.77;;
18455;SDS011;9357;49.900;8.208;2022-09-24T08:34:08;8.17;;;7.43;;
18455;SDS011;9357;49.900;8.208;2022-09-24T08:35:41;8.20;;;7.07;;
18455;SDS011;9357;49.900;8.208;2022-09-24T08:37:13;8.97;;;6.90;;
18455;SDS011;9357;49.900;8.208;2022-09-24T08:38:46;11.37;;;6.90;;
18455;SDS011;9357;49.900;8.208;2022-09-24T08:40:20;9.33;;;7.40;;
18455;SDS011;9357;49.900;8.208;2022-09-24T08:41:56;7.73;;;7.00;;
18455;SDS011;9357;49.900;8.208;2022-09-24T08:43:36;7.03;;;6.30;;
18455;SDS011;9357;49.900;8.208;2022-09-24T08:45:16;8.57;;;6.40;;
18455;SDS011;9357;49.900;8.208;2022-09-24T08:47:10;9.20;;;6.17;;
18455;SDS011;9357;49.900;8.208;2022-09-24T08:48:54;7.30;;;6.50;;
18455;SDS011;9357;49.900;8.208;2022-09-24T08:50:30;7.40;;;6.70;;
18455;SDS011;9357;49.900;8.208;2022-09-24T08:52:12;7.17;;;6.47;;
18455;SDS011;9357;49.900;8.208;2022-09-24T08:53:56;7.83;;;7.03;;
18455;SDS011;9357;49.900;8.208;2022-09-24T08:55:35;7.33;;;6.20;;
18455;SDS011;9357;49.900;8.208;2022-09-24T08:57:11;6.80;;;6.10;;
18455;SDS011;9357;49.900;8.208;2022-09-24T08:58:47;7.43;;;6.40;;
18455;SDS011;9357;49.900;8.208;2022-09-24T09:00:24;6.90;;;5.90;;
18455;SDS011;9357;49.900;8.208;2022-09-24T09:02:04;7.20;;;6.50;;
18455;SDS011;9357;49.900;8.208;2022-09-24T09:03:50;7.10;;;6.40;;
18455;SDS011;9357;49.900;8.208;2022-09-24T09:05:32;8.40;;;6.90;;
18455;SDS011;9357;49.900;8.208;2022-09-24T09:07:20;9.37;;;7.17;;
18455;SDS011;9357;49.900;8.208;2022-09-24T09:08:57;11.33;;;7.07;;
18455;SDS011;9357;49.900;8.208;2022-09-24T09:10:39;10.67;;;8.60;;
18455;SDS011;9357;49.900;8.208;2022-09-24T09:12:14;8.43;;;7.60;;
18455;SDS011;9357;49.900;8.208;2022-09-24T09:13:51;8.03;;;7.23;;
18455;SDS011;9357;49.900;8.208;2022-09-24T09:15:29;7.43;;;6.63;;
18455;SDS011;9357;49.900;8.208;2022-09-24T09:17:05;8.50;;;7.60;;
18455;SDS011;9357;49.900;8.208;2022-09-24T09:18:45;8.40;;;7.23;;
18455;SDS011;9357;49.900;8.208;2022-09-24T09:20:22;8.27;;;7.10;;
18455;SDS011;9357;49.900;8.208;2022-09-24T09:22:02;10.13;;;7.60;;
18455;SDS011;9357;49.900;8.208;2022-09-24T09:23:40;7.77;;;7.00;;
18455;SDS011;9357;49.900;8.208;2022-09-24T09:25:19;7.90;;;7.17;;
18455;SDS011;9357;49.900;8.208;2022-09-24T09:26:54;7.93;;;7.13;;
18455;SDS011;9357;49.900;8.208;2022-09-24T09:28:28;8.40;;;7.60;;
18455;SDS011;9357;49.900;8.208;2022-09-24T09:30:03;9.03;;;7.50;;
18455;SDS011;9357;49.900;8.208;2022-09-24T09:31:46;8.70;;;7.90;;
18455;SDS011;9357;49.900;8.208;2022-09-24T09:33:30;8.47;;;7.67;;
18455;SDS011;9357;49.900;8.208;2022-09-24T09:35:14;9.07;;;8.17;;
18455;SDS011;9357;49.900;8.208;2022-09-24T09:36:53;13.63;;;8.20;;
18455;SDS011;9357;49.900;8.208;2022-09-24T09:38:38;8.73;;;7.90;;
18455;SDS011;9357;49.900;8.208;2022-09-24T09:40:24;10.17;;;8.37;;
18455;SDS011;9357;49.900;8.208;2022-09-24T09:42:06;11.63;;;7.37;;